Time;durP1;ratioP1;P1;durP2;ratioP2;P2;SDS_P1;SDS_P2;PMS_P1;PMS_P2;Temp;Humidity;BMP_temperature;BMP_pressure;BME280_temperature;BME280_humidity;BME280_pressure;Samples;Min_cycle;Max_cycle;Signal;HPM_P1;HPM_P2
2021/08/25 00:01:01;;;;;;;8.38;6.22;;;15.80;99.90;;;;;;5033616;28;20426;-87
2021/08/25 00:03:31;;;;;;;9.05;6.78;;;15.80;99.90;;;;;;5033434;28;20131;-88
2021/08/25 00:05:58;;;;;;;9.57;6.45;;;15.80;99.90;;;;;;5033678;28;20055;-87
2021/08/25 00:08:25;;;;;;;10.18;6.70;;;15.70;99.90;;;;;;5033532;28;20052;-87
2021/08/25 00:10:52;;;;;;;8.77;6.55;;;15.70;99.90;;;;;;5033868;28;20048;-88
2021/08/25 00:13:20;;;;;;;9.10;6.95;;;15.80;99.90;;;;;;5033851;28;20133;-85
2021/08/25 00:15:47;;;;;;;9.77;6.68;;;15.60;99.90;;;;;;5032396;28;20038;-85
2021/08/25 00:18:15;;;;;;;8.65;6.72;;;15.70;99.90;;;;;;5032883;28;20046;-85
2021/08/25 00:20:42;;;;;;;9.48;6.78;;;15.60;99.90;;;;;;5032664;28;20052;-86
2021/08/25 00:23:09;;;;;;;10.95;7.43;;;15.50;99.90;;;;;;5032452;28;20075;-86
2021/08/25 00:25:36;;;;;;;8.73;7.10;;;15.60;99.90;;;;;;5032716;28;20055;-85
2021/08/25 00:28:04;;;;;;;10.50;7.78;;;15.50;99.90;;;;;;5032114;28;20047;-85
2021/08/25 00:30:31;;;;;;;10.32;7.65;;;15.40;99.90;;;;;;5032458;28;20045;-86
2021/08/25 00:32:58;;;;;;;9.15;7.13;;;15.40;99.90;;;;;;5032637;28;20132;-85
2021/08/25 00:35:27;;;;;;;10.68;7.63;;;15.30;99.90;;;;;;5032412;28;20495;-85
2021/08/25 00:37:54;;;;;;;10.15;7.88;;;15.30;99.90;;;;;;5032395;28;20052;-85
2021/08/25 00:40:21;;;;;;;9.38;7.43;;;15.30;99.90;;;;;;5032645;28;20059;-87
2021/08/25 00:42:48;;;;;;;9.40;7.53;;;15.30;99.90;;;;;;5032768;28;20041;-84
2021/08/25 00:45:15;;;;;;;9.02;6.95;;;15.20;99.90;;;;;;5032675;28;20407;-85
2021/08/25 00:47:44;;;;;;;10.07;7.72;;;15.20;99.90;;;;;;5035615;28;20045;-85
2021/08/25 00:50:13;;;;;;;11.27;7.70;;;15.30;99.90;;;;;;5036862;28;20041;-85
2021/08/25 00:52:44;;;;;;;9.65;7.95;;;15.10;99.90;;;;;;5036299;28;20045;-86
2021/08/25 00:55:13;;;;;;;11.35;8.63;;;15.20;99.90;;;;;;5036368;28;20048;-86
2021/08/25 00:57:40;;;;;;;11.23;8.18;;;15.20;99.90;;;;;;5035946;28;20056;-86
2021/08/25 01:00:10;;;;;;;12.05;7.70;;;15.00;99.90;;;;;;5035871;28;20132;-86
2021/08/25 01:02:45;;;;;;;11.85;8.00;;;15.00;99.90;;;;;;5035864;28;20075;-86
2021/08/25 01:05:12;;;;;;;;;;;15.10;99.90;;;;;;5036479;28;20044;-86
2021/08/25 01:07:41;;;;;;;9.65;7.35;;;15.00;99.90;;;;;;5035940;28;19925;-87
2021/08/25 01:10:25;;;;;;;9.80;6.32;;;15.00;99.90;;;;;;5035886;28;20041;-86
2021/08/25 01:12:53;;;;;;;8.63;6.78;;;15.00;99.90;;;;;;5020907;28;20049;-86
2021/08/25 01:15:20;;;;;;;11.88;6.85;;;15.00;99.90;;;;;;5035765;28;20045;-86
2021/08/25 01:17:48;;;;;;;9.82;6.82;;;15.00;99.90;;;;;;5035817;28;20045;-86
2021/08/25 01:20:16;;;;;;;10.10;8.00;;;15.00;99.90;;;;;;5035545;28;20045;-86
2021/08/25 01:22:44;;;;;;;9.63;7.03;;;14.90;99.90;;;;;;5035703;28;20052;-86
2021/08/25 01:25:13;;;;;;;11.50;8.05;;;14.90;99.90;;;;;;5035592;28;20506;-84
2021/08/25 01:27:44;;;;;;;8.80;6.85;;;14.80;99.90;;;;;;5035347;28;20042;-85
2021/08/25 01:30:14;;;;;;;10.05;7.43;;;14.80;99.90;;;;;;5036087;28;20056;-88
2021/08/25 01:32:42;;;;;;;10.10;7.55;;;14.80;99.90;;;;;;5035960;28;20418;-88
2021/08/25 01:35:10;;;;;;;10.05;7.28;;;14.80;99.90;;;;;;5036190;28;20048;-88
2021/08/25 01:37:38;;;;;;;11.25;7.63;;;14.70;99.90;;;;;;5035932;28;20049;-88
2021/08/25 01:40:07;;;;;;;10.93;8.15;;;14.80;99.90;;;;;;5036180;28;20045;-88
2021/08/25 01:42:34;;;;;;;10.57;7.50;;;14.80;99.90;;;;;;5035897;28;20095;-89
2021/08/25 01:45:01;;;;;;;10.30;7.35;;;14.60;99.90;;;;;;5035674;28;20049;-87
2021/08/25 01:47:29;;;;;;;9.05;7.13;;;14.70;99.90;;;;;;5035602;28;20053;-88
2021/08/25 01:49:56;;;;;;;11.30;8.30;;;14.60;99.90;;;;;;5035732;28;20047;-87
2021/08/25 01:52:24;;;;;;;11.88;7.88;;;14.60;99.90;;;;;;5035250;28;20045;-86
2021/08/25 01:54:53;;;;;;;12.77;7.97;;;14.50;99.90;;;;;;5035521;28;20055;-86
2021/08/25 01:57:21;;;;;;;9.05;7.13;;;14.50;99.90;;;;;;5034490;28;20079;-86
2021/08/25 01:59:48;;;;;;;10.55;7.35;;;14.50;99.90;;;;;;5034189;28;20041;-86
2021/08/25 02:02:15;;;;;;;9.45;7.32;;;14.50;99.90;;;;;;5034912;28;20046;-85
2021/08/25 02:04:44;;;;;;;12.43;8.05;;;14.50;99.90;;;;;;5035190;28;20051;-87
2021/08/25 02:07:11;;;;;;;11.15;8.15;;;14.50;99.90;;;;;;5035075;28;20067;-87
2021/08/25 02:09:38;;;;;;;10.65;8.25;;;14.40;99.90;;;;;;5034936;28;20045;-87
2021/08/25 02:12:06;;;;;;;10.82;8.38;;;14.40;99.90;;;;;;5035050;28;20045;-87
2021/08/25 02:14:34;;;;;;;16.75;9.27;;;14.30;99.90;;;;;;5034770;28;20049;-87
2021/08/25 02:17:02;;;;;;;12.30;8.13;;;14.30;99.90;;;;;;5034777;28;20041;-87
2021/08/25 02:19:29;;;;;;;11.45;8.48;;;14.30;99.90;;;;;;5034580;28;20068;-86
2021/08/25 02:21:58;;;;;;;10.38;7.70;;;14.10;99.90;;;;;;5034616;28;20050;-87
2021/08/25 02:24:25;;;;;;;10.70;7.90;;;14.10;99.90;;;;;;5034278;28;20045;-87
2021/08/25 02:26:52;;;;;;;10.48;7.95;;;14.00;99.90;;;;;;5035165;28;20044;-87
2021/08/25 02:29:19;;;;;;;13.20;8.55;;;14.10;99.90;;;;;;5034702;28;20045;-90
2021/08/25 02:31:46;;;;;;;10.85;7.70;;;13.90;99.90;;;;;;5035310;28;20052;-89
2021/08/25 02:34:14;;;;;;;11.30;8.38;;;14.00;99.90;;;;;;5035020;28;20487;-88
2021/08/25 02:36:41;;;;;;;9.93;7.60;;;13.90;99.90;;;;;;5035175;28;20056;-88
2021/08/25 02:39:10;;;;;;;9.20;7.13;;;13.90;99.90;;;;;;5034699;28;20042;-88
2021/08/25 02:41:37;;;;;;;10.50;7.60;;;14.00;99.90;;;;;;5034780;28;20049;-87
2021/08/25 02:44:04;;;;;;;10.25;7.43;;;14.00;99.90;;;;;;5034483;28;20054;-86
2021/08/25 02:46:32;;;;;;;11.75;7.90;;;14.10;99.90;;;;;;5034233;28;20107;-87
2021/08/25 02:48:59;;;;;;;10.23;7.53;;;14.10;99.90;;;;;;5034246;28;20412;-88
2021/08/25 02:51:26;;;;;;;10.65;7.43;;;14.00;99.90;;;;;;5034016;28;20045;-86
2021/08/25 02:53:53;;;;;;;8.88;6.63;;;14.10;99.90;;;;;;5033957;28;20052;-85
2021/08/25 02:56:21;;;;;;;11.82;7.70;;;14.10;99.90;;;;;;5033660;28;20041;-87
2021/08/25 02:58:48;;;;;;;11.63;7.20;;;14.00;99.90;;;;;;5033592;28;20048;-88
2021/08/25 03:01:17;;;;;;;11.38;8.27;;;14.10;99.90;;;;;;5034036;28;20498;-87
2021/08/25 03:03:47;;;;;;;10.60;7.32;;;13.90;99.90;;;;;;5030699;28;20445;-87
2021/08/25 03:06:19;;;;;;;12.70;7.50;;;13.90;99.90;;;;;;5032903;28;20411;-92
2021/08/25 03:08:46;;;;;;;12.15;8.07;;;14.00;99.90;;;;;;5032153;28;20563;-89
2021/08/25 03:11:13;;;;;;;10.52;7.72;;;13.90;99.90;;;;;;5031846;28;20045;-88
2021/08/25 03:13:42;;;;;;;9.68;7.25;;;13.90;99.90;;;;;;5031127;28;20045;-89
2021/08/25 03:16:10;;;;;;;10.30;7.05;;;13.80;99.90;;;;;;5031116;28;20059;-88
2021/08/25 03:18:37;;;;;;;11.48;8.02;;;13.70;99.90;;;;;;5031044;28;20080;-87
2021/08/25 03:21:04;;;;;;;13.13;8.05;;;13.80;99.90;;;;;;5031005;28;20672;-87
2021/08/25 03:23:31;;;;;;;10.38;7.82;;;13.80;99.90;;;;;;5030708;28;20045;-87
2021/08/25 03:25:58;;;;;;;10.23;7.60;;;13.80;99.90;;;;;;5031429;28;20124;-89
2021/08/25 03:28:25;;;;;;;10.70;7.85;;;13.60;99.90;;;;;;5030121;28;20131;-85
2021/08/25 03:30:57;;;;;;;11.43;8.10;;;13.60;99.90;;;;;;5031555;28;20128;-90
2021/08/25 03:33:24;;;;;;;10.68;7.65;;;13.60;99.90;;;;;;5031892;28;20041;-90
2021/08/25 03:35:51;;;;;;;10.93;7.55;;;13.60;99.90;;;;;;5031658;28;20224;-90
2021/08/25 03:38:18;;;;;;;12.02;8.10;;;13.60;99.90;;;;;;5031982;28;20053;-92
2021/08/25 03:40:45;;;;;;;11.32;7.70;;;13.60;99.90;;;;;;5031889;28;20046;-90
2021/08/25 03:43:12;;;;;;;10.52;7.28;;;13.60;99.90;;;;;;5031084;28;20041;-87
2021/08/25 03:45:39;;;;;;;10.35;6.90;;;13.60;99.90;;;;;;5031403;28;20402;-88
2021/08/25 03:48:08;;;;;;;9.88;6.97;;;13.60;99.90;;;;;;5030632;28;20045;-88
2021/08/25 03:50:35;;;;;;;9.93;7.13;;;13.70;99.90;;;;;;5030165;28;20128;-86
2021/08/25 03:53:02;;;;;;;10.30;7.40;;;13.70;99.90;;;;;;5030895;28;20050;-89
2021/08/25 03:55:29;;;;;;;9.80;7.15;;;13.70;99.90;;;;;;5030796;28;20825;-86
2021/08/25 03:57:56;;;;;;;10.88;7.57;;;13.80;99.90;;;;;;5029795;28;20045;-86
2021/08/25 04:00:23;;;;;;;9.85;7.30;;;13.90;99.90;;;;;;5030381;28;20487;-88
2021/08/25 04:02:50;;;;;;;10.25;7.95;;;13.80;99.90;;;;;;5033252;28;20037;-88
2021/08/25 04:05:19;;;;;;;13.43;8.10;;;13.80;99.90;;;;;;5033544;28;20391;-86
2021/08/25 04:07:46;;;;;;;11.23;7.43;;;13.90;99.90;;;;;;5016782;28;20129;-90
2021/08/25 04:10:13;;;;;;;10.18;7.40;;;13.90;99.90;;;;;;5033718;28;20055;-88
2021/08/25 04:12:40;;;;;;;10.93;7.75;;;13.90;99.90;;;;;;5033670;28;20048;-87
2021/08/25 04:15:09;;;;;;;9.57;7.32;;;14.00;99.90;;;;;;5033440;28;20045;-88
2021/08/25 04:17:36;;;;;;;11.40;7.97;;;13.90;99.90;;;;;;5033588;28;20075;-88
2021/08/25 04:20:04;;;;;;;10.45;7.80;;;13.90;99.90;;;;;;5033976;28;20379;-92
2021/08/25 04:22:33;;;;;;;9.77;7.30;;;14.00;99.90;;;;;;5039379;28;20140;-91
2021/08/25 04:25:00;;;;;;;11.30;7.70;;;13.90;99.90;;;;;;5043085;28;20124;-91
2021/08/25 04:27:27;;;;;;;10.57;7.70;;;13.90;99.90;;;;;;5039925;28;20048;-90
2021/08/25 04:29:54;;;;;;;10.48;7.20;;;14.00;99.90;;;;;;5038354;28;20133;-88
2021/08/25 04:32:21;;;;;;;12.02;7.80;;;14.00;99.90;;;;;;5037592;28;20045;-83
2021/08/25 04:34:48;;;;;;;10.98;7.68;;;13.90;99.90;;;;;;5036097;28;20045;-82
2021/08/25 04:37:15;;;;;;;10.43;7.60;;;13.90;99.90;;;;;;5045271;23;20053;-81
2021/08/25 04:39:43;;;;;;;10.95;7.45;;;13.90;99.90;;;;;;5055049;28;20519;-87
2021/08/25 04:42:10;;;;;;;10.05;8.05;;;14.00;99.90;;;;;;5050884;28;20045;-86
2021/08/25 04:44:37;;;;;;;10.77;7.85;;;13.90;99.90;;;;;;5055738;28;20047;-86
2021/08/25 04:47:05;;;;;;;10.63;7.70;;;13.90;99.90;;;;;;5040968;28;20051;-84
2021/08/25 04:49:32;;;;;;;10.73;8.45;;;14.00;99.90;;;;;;5057089;28;20128;-88
2021/08/25 04:51:59;;;;;;;10.13;7.80;;;14.00;99.90;;;;;;5056524;28;20041;-85
2021/08/25 04:54:26;;;;;;;11.30;8.50;;;13.90;99.90;;;;;;5043631;28;20409;-86
2021/08/25 04:56:54;;;;;;;10.50;7.70;;;13.90;99.90;;;;;;5050438;28;20049;-85
2021/08/25 04:59:22;;;;;;;13.75;9.10;;;14.00;99.90;;;;;;5037310;28;20406;-86
2021/08/25 05:01:49;;;;;;;11.93;8.15;;;14.00;99.90;;;;;;5052258;28;20045;-89
2021/08/25 05:04:16;;;;;;;11.95;8.40;;;14.00;99.90;;;;;;5054174;28;20497;-87
2021/08/25 05:06:43;;;;;;;10.60;7.70;;;14.00;99.90;;;;;;5055916;28;20049;-86
2021/08/25 05:09:10;;;;;;;10.55;7.20;;;14.10;99.90;;;;;;5050538;28;20049;-85
2021/08/25 05:11:37;;;;;;;10.70;7.85;;;14.10;99.90;;;;;;5045462;28;20041;-86
2021/08/25 05:14:05;;;;;;;10.43;7.43;;;14.10;99.90;;;;;;5051438;28;20405;-85
2021/08/25 05:16:32;;;;;;;11.07;7.60;;;14.10;99.90;;;;;;5056058;28;20045;-85
2021/08/25 05:18:59;;;;;;;10.82;8.15;;;14.00;99.90;;;;;;5055982;28;20140;-85
2021/08/25 05:21:26;;;;;;;12.35;7.40;;;14.10;99.90;;;;;;5055483;28;20044;-85
2021/08/25 05:23:53;;;;;;;11.82;7.95;;;14.00;99.90;;;;;;5055157;28;20477;-85
2021/08/25 05:26:21;;;;;;;11.75;7.57;;;14.10;99.90;;;;;;5055792;28;20056;-85
2021/08/25 05:28:48;;;;;;;11.23;7.72;;;14.20;99.90;;;;;;5044109;28;20103;-86
2021/08/25 05:31:16;;;;;;;10.13;6.78;;;14.20;99.90;;;;;;5035786;28;20052;-85
2021/08/25 05:33:43;;;;;;;10.77;7.57;;;14.20;99.90;;;;;;5044502;28;20045;-85
2021/08/25 05:36:10;;;;;;;10.80;7.70;;;14.20;99.90;;;;;;5055220;28;20055;-84
2021/08/25 05:38:38;;;;;;;11.85;7.88;;;14.20;99.90;;;;;;5056999;28;20063;-83
2021/08/25 05:41:05;;;;;;;11.38;8.25;;;14.30;99.90;;;;;;5056124;28;20121;-89
2021/08/25 05:43:32;;;;;;;11.00;7.88;;;14.30;99.90;;;;;;5057215;28;20051;-90
2021/08/25 05:45:58;;;;;;;10.63;7.70;;;14.30;99.90;;;;;;5060500;28;20501;-92
2021/08/25 05:48:27;;;;;;;9.40;6.60;;;14.30;99.90;;;;;;5048412;28;20133;-88
2021/08/25 05:50:54;;;;;;;9.65;7.22;;;14.30;99.90;;;;;;5036461;28;20137;-87
2021/08/25 05:53:21;;;;;;;11.35;7.82;;;14.30;99.90;;;;;;5036560;28;20045;-87
2021/08/25 05:55:48;;;;;;;11.10;7.78;;;14.30;99.90;;;;;;5037990;28;20147;-88
2021/08/25 05:58:15;;;;;;;9.27;7.05;;;14.30;99.90;;;;;;5037759;28;20049;-90
2021/08/25 06:00:42;;;;;;;10.88;7.20;;;14.40;99.90;;;;;;5037927;28;20055;-92
2021/08/25 06:03:09;;;;;;;10.73;6.90;;;14.30;99.90;;;;;;5054270;28;20059;-84
2021/08/25 06:05:38;;;;;;;10.88;7.57;;;14.40;99.90;;;;;;5051780;28;20152;-88
2021/08/25 06:08:06;;;;;;;10.93;7.60;;;14.40;99.90;;;;;;5055852;28;20049;-85
2021/08/25 06:10:33;;;;;;;9.77;6.70;;;14.50;99.90;;;;;;5047326;28;20368;-87
2021/08/25 06:13:00;;;;;;;11.00;7.57;;;14.50;99.90;;;;;;5035325;28;20050;-86
2021/08/25 06:15:27;;;;;;;10.55;7.50;;;14.50;99.90;;;;;;5035091;28;20477;-86
2021/08/25 06:17:54;;;;;;;11.50;7.18;;;14.60;99.90;;;;;;5035200;28;20057;-87
2021/08/25 06:20:21;;;;;;;11.05;6.97;;;14.50;99.90;;;;;;5035102;28;20056;-86
2021/08/25 06:22:50;;;;;;;9.68;6.72;;;14.50;99.90;;;;;;5035471;28;20049;-88
2021/08/25 06:25:17;;;;;;;9.43;6.80;;;14.60;99.90;;;;;;5034839;28;20053;-86
2021/08/25 06:27:44;;;;;;;10.75;6.90;;;14.70;99.90;;;;;;5035006;28;20456;-86
2021/08/25 06:30:12;;;;;;;8.95;6.30;;;14.60;99.90;;;;;;5034815;28;20045;-85
2021/08/25 06:32:39;;;;;;;10.98;7.28;;;14.60;99.90;;;;;;5034761;28;20050;-86
2021/08/25 06:35:07;;;;;;;9.88;7.72;;;14.70;99.90;;;;;;5035224;28;20133;-86
2021/08/25 06:37:35;;;;;;;9.75;6.80;;;14.70;99.90;;;;;;5034596;28;20440;-86
2021/08/25 06:40:04;;;;;;;9.95;6.68;;;14.80;99.90;;;;;;5034661;28;20045;-86
2021/08/25 06:42:31;;;;;;;9.70;6.90;;;14.70;99.90;;;;;;5034658;28;20048;-87
2021/08/25 06:44:58;;;;;;;9.80;7.13;;;14.80;99.90;;;;;;5034089;28;20405;-87
2021/08/25 06:47:25;;;;;;;9.90;6.70;;;14.80;99.90;;;;;;5034653;28;20045;-85
2021/08/25 06:49:52;;;;;;;11.65;7.68;;;14.80;99.90;;;;;;5034742;28;20045;-86
2021/08/25 06:52:19;;;;;;;10.18;6.88;;;14.90;99.90;;;;;;5034799;28;20041;-87
2021/08/25 06:54:46;;;;;;;10.75;7.28;;;14.80;99.90;;;;;;5034900;28;20051;-87
2021/08/25 06:57:14;;;;;;;9.90;6.97;;;14.90;99.90;;;;;;5034851;28;20056;-87
2021/08/25 06:59:41;;;;;;;8.25;6.05;;;15.00;99.90;;;;;;5034504;28;20059;-87
2021/08/25 07:02:08;;;;;;;10.82;6.47;;;15.00;99.90;;;;;;5034407;28;20055;-86
2021/08/25 07:04:35;;;;;;;9.68;6.72;;;15.10;99.90;;;;;;5034533;28;20055;-88
2021/08/25 07:07:03;;;;;;;9.45;6.50;;;15.00;99.90;;;;;;5034090;28;20045;-87
2021/08/25 07:09:30;;;;;;;11.75;8.18;;;15.10;99.90;;;;;;5034244;28;20056;-87
2021/08/25 07:11:57;;;;;;;10.63;7.43;;;15.30;99.90;;;;;;5033973;28;20049;-87
2021/08/25 07:14:25;;;;;;;10.35;7.10;;;15.20;99.90;;;;;;5033790;28;20137;-87
2021/08/25 07:16:52;;;;;;;9.35;6.55;;;15.20;99.90;;;;;;5033851;28;20045;-88
2021/08/25 07:19:19;;;;;;;9.70;6.50;;;15.30;99.90;;;;;;5034420;28;20050;-88
2021/08/25 07:21:46;;;;;;;8.18;5.82;;;15.40;99.90;;;;;;5034138;28;20487;-88
2021/08/25 07:24:14;;;;;;;10.38;6.25;;;15.30;99.90;;;;;;5034417;28;20055;-87
2021/08/25 07:26:41;;;;;;;9.38;5.88;;;15.40;99.90;;;;;;5034134;28;20064;-86
2021/08/25 07:29:08;;;;;;;8.75;6.05;;;15.60;99.90;;;;;;5034442;28;20053;-88
2021/08/25 07:31:37;;;;;;;9.07;5.97;;;15.60;99.90;;;;;;5034341;28;20045;-86
2021/08/25 07:34:04;;;;;;;10.27;6.25;;;15.70;99.90;;;;;;5033476;28;20050;-87
2021/08/25 07:36:31;;;;;;;8.32;5.70;;;15.60;99.90;;;;;;5033791;28;20406;-87
2021/08/25 07:38:58;;;;;;;8.25;5.15;;;15.70;99.90;;;;;;5033315;28;20068;-86
2021/08/25 07:41:25;;;;;;;7.32;4.97;;;15.80;99.90;;;;;;5033577;28;20425;-88
2021/08/25 07:43:52;;;;;;;6.47;4.32;;;15.70;99.90;;;;;;5033565;28;20053;-87
2021/08/25 07:46:19;;;;;;;6.43;4.15;;;15.90;99.90;;;;;;5033584;28;20045;-86
2021/08/25 07:48:48;;;;;;;8.23;4.72;;;15.90;99.90;;;;;;5033415;28;20045;-87
2021/08/25 07:51:15;;;;;;;6.85;4.93;;;16.00;99.90;;;;;;5033534;28;20049;-86
2021/08/25 07:53:42;;;;;;;7.28;4.25;;;16.10;99.90;;;;;;5033384;28;20485;-87
2021/08/25 07:56:09;;;;;;;6.70;4.53;;;16.00;99.90;;;;;;5033612;28;20128;-86
2021/08/25 07:58:36;;;;;;;6.20;4.07;;;16.10;99.90;;;;;;5033419;28;20514;-86
2021/08/25 08:01:03;;;;;;;6.60;4.35;;;16.20;99.90;;;;;;5033345;28;20051;-87
2021/08/25 08:03:30;;;;;;;8.18;4.55;;;16.20;99.90;;;;;;5033732;28;20048;-87
2021/08/25 08:05:58;;;;;;;7.57;4.38;;;16.30;99.90;;;;;;5033420;28;20486;-88
2021/08/25 08:08:25;;;;;;;7.50;4.53;;;16.50;99.90;;;;;;5033497;28;20049;-88
2021/08/25 08:10:53;;;;;;;7.93;4.65;;;16.50;99.90;;;;;;5033568;28;20046;-87
2021/08/25 08:13:20;;;;;;;6.45;3.72;;;16.40;99.90;;;;;;5033663;28;20056;-86
2021/08/25 08:15:48;;;;;;;5.85;3.70;;;16.50;99.90;;;;;;5033428;28;20042;-88
2021/08/25 08:18:20;;;;;;;6.45;4.15;;;16.50;99.90;;;;;;5033600;28;20422;-88
2021/08/25 08:20:47;;;;;;;5.28;3.22;;;16.50;99.90;;;;;;5033814;28;20115;-87
2021/08/25 08:23:16;;;;;;;7.43;3.70;;;16.70;99.90;;;;;;5033409;28;20052;-86
2021/08/25 08:25:45;;;;;;;6.40;3.60;;;16.60;99.90;;;;;;5033666;28;20136;-88
2021/08/25 08:28:12;;;;;;;7.10;3.80;;;16.90;99.90;;;;;;5033301;28;20053;-88
2021/08/25 08:30:39;;;;;;;6.10;3.85;;;16.80;99.90;;;;;;5033366;28;20041;-87
2021/08/25 08:33:06;;;;;;;6.35;3.97;;;17.00;99.90;;;;;;5033144;28;20458;-87
2021/08/25 08:35:36;;;;;;;5.82;3.35;;;17.00;99.90;;;;;;5033026;28;20537;-87
2021/08/25 08:38:03;;;;;;;5.95;3.25;;;17.10;99.90;;;;;;5032883;28;20053;-85
2021/08/25 08:40:32;;;;;;;4.82;2.90;;;17.10;99.90;;;;;;5032707;28;20075;-85
2021/08/25 08:43:05;;;;;;;4.95;2.70;;;17.10;99.90;;;;;;5032908;28;20047;-85
2021/08/25 08:45:38;;;;;;;5.70;3.13;;;17.20;99.90;;;;;;5032487;28;20045;-85
2021/08/25 08:48:08;;;;;;;5.80;3.58;;;17.10;99.90;;;;;;5032504;28;20054;-84
2021/08/25 08:50:36;;;;;;;6.28;3.30;;;17.20;99.90;;;;;;5032563;28;20072;-86
2021/08/25 08:53:04;;;;;;;4.60;3.08;;;17.30;99.90;;;;;;5031788;28;20051;-86
2021/08/25 08:55:33;;;;;;;5.22;2.75;;;17.30;99.90;;;;;;5042670;28;20056;-86
2021/08/25 08:58:00;;;;;;;4.72;2.58;;;17.40;99.90;;;;;;5050709;28;20052;-86
2021/08/25 09:00:28;;;;;;;6.20;3.30;;;17.50;99.90;;;;;;5049760;28;20616;-85
2021/08/25 09:02:55;;;;;;;5.45;3.40;;;17.60;99.90;;;;;;5050252;28;20055;-86
2021/08/25 09:05:25;;;;;;;5.60;3.20;;;17.60;99.90;;;;;;5049915;28;20136;-86
2021/08/25 09:07:56;;;;;;;6.90;3.20;;;17.60;99.90;;;;;;5047163;28;20483;-84
2021/08/25 09:10:27;;;;;;;6.30;2.90;;;17.60;99.90;;;;;;5052172;28;20069;-84
2021/08/25 09:12:58;;;;;;;4.90;2.75;;;17.60;99.90;;;;;;5052302;28;20486;-85
2021/08/25 09:15:28;;;;;;;5.88;3.00;;;17.60;99.90;;;;;;5051623;28;20141;-84
2021/08/25 09:17:58;;;;;;;4.95;2.92;;;17.90;99.90;;;;;;5043362;28;20132;-84
2021/08/25 09:20:27;;;;;;;6.38;3.15;;;17.70;99.90;;;;;;5031588;28;20057;-84
2021/08/25 09:23:13;;;;;;;4.95;2.90;;;17.90;99.90;;;;;;5044564;28;20376;-85
2021/08/25 09:25:41;;;;;;;5.60;3.22;;;17.90;99.90;;;;;;5047256;28;20383;-85
2021/08/25 09:28:12;;;;;;;6.03;3.00;;;18.00;99.90;;;;;;5035314;28;20053;-85
2021/08/25 09:30:59;;;;;;;5.75;3.00;;;18.10;99.90;;;;;;5049377;28;20044;-85
2021/08/25 09:33:28;;;;;;;6.53;3.33;;;18.00;99.90;;;;;;5051495;28;20073;-86
2021/08/25 09:35:58;;;;;;;5.15;2.85;;;18.20;99.90;;;;;;5050764;28;20136;-84
2021/08/25 09:38:28;;;;;;;4.40;2.28;;;18.20;99.90;;;;;;5051145;28;20549;-84
2021/08/25 09:40:57;;;;;;;6.05;3.15;;;18.10;99.90;;;;;;5051186;28;20083;-85
2021/08/25 09:43:41;;;;;;;4.85;2.70;;;18.20;99.90;;;;;;5051461;28;20128;-85
2021/08/25 09:46:15;;;;;;;7.35;3.20;;;18.40;99.90;;;;;;5039031;28;20048;-85
2021/08/25 09:48:45;;;;;;;5.82;3.08;;;18.20;99.90;;;;;;5051477;28;20663;-85
2021/08/25 09:51:15;;;;;;;5.43;3.15;;;18.50;99.90;;;;;;5051340;28;20127;-85
2021/08/25 09:53:42;;;;;;;5.82;3.58;;;18.50;99.90;;;;;;5051369;28;20053;-85
2021/08/25 09:56:27;;;;;;;6.20;3.20;;;18.40;99.90;;;;;;5051169;28;20557;-84
2021/08/25 09:58:56;;;;;;;5.75;3.03;;;18.40;99.90;;;;;;5050882;28;20059;-84
2021/08/25 10:01:24;;;;;;;5.68;2.75;;;18.60;99.90;;;;;;5051183;28;20076;-84
2021/08/25 10:03:52;;;;;;;5.25;3.00;;;18.70;99.90;;;;;;5038299;28;20048;-83
2021/08/25 10:06:21;;;;;;;6.45;3.15;;;18.80;99.90;;;;;;5041295;28;20045;-85
2021/08/25 10:08:49;;;;;;;5.20;2.95;;;18.80;99.90;;;;;;5035904;28;20383;-83
2021/08/25 10:11:18;;;;;;;5.97;2.85;;;18.70;99.90;;;;;;5032974;28;20144;-84
2021/08/25 10:13:46;;;;;;;5.78;2.70;;;18.80;99.90;;;;;;5051411;28;20053;-85
2021/08/25 10:16:44;;;;;;;5.78;2.90;;;18.90;99.90;;;;;;5050955;28;20470;-84
2021/08/25 10:19:34;;;;;;;4.85;2.80;;;18.90;99.70;;;;;;5049919;28;20049;-85
2021/08/25 10:22:05;;;;;;;5.97;3.30;;;18.80;99.60;;;;;;5051813;28;20049;-85
2021/08/25 10:25:00;;;;;;;5.00;2.70;;;19.00;99.40;;;;;;5039360;28;20045;-85
2021/08/25 10:27:30;;;;;;;6.20;3.03;;;19.10;99.10;;;;;;5030824;28;20052;-85
2021/08/25 10:30:14;;;;;;;5.00;2.70;;;19.10;98.90;;;;;;5030670;28;20575;-85
2021/08/25 10:33:11;;;;;;;5.35;2.75;;;19.30;98.50;;;;;;5030546;28;20049;-85
2021/08/25 10:35:42;;;;;;;5.38;2.67;;;19.20;98.60;;;;;;5030735;28;20124;-86
2021/08/25 10:38:30;;;;;;;6.38;3.13;;;19.30;98.60;;;;;;5029942;28;20231;-85
2021/08/25 10:41:02;;;;;;;4.78;2.50;;;19.50;98.00;;;;;;5030515;28;20538;-86
2021/08/25 10:43:42;;;;;;;6.82;3.65;;;19.50;97.70;;;;;;5030590;28;20042;-87
2021/08/25 10:46:12;;;;;;;6.60;3.05;;;19.60;96.10;;;;;;5030331;28;20051;-85
2021/08/25 10:48:53;;;;;;;5.13;2.95;;;19.60;96.00;;;;;;5030527;28;20041;-86
2021/08/25 10:51:35;;;;;;;6.22;2.88;;;19.70;96.30;;;;;;5029932;28;20080;-85
2021/08/25 10:54:05;;;;;;;5.63;3.10;;;19.90;97.10;;;;;;5030494;28;20128;-85
2021/08/25 10:56:36;;;;;;;5.38;2.95;;;19.80;97.70;;;;;;5030303;28;20042;-85
2021/08/25 10:59:06;;;;;;;5.18;2.90;;;20.00;98.10;;;;;;5030327;28;20049;-86
2021/08/25 11:01:36;;;;;;;5.75;3.15;;;20.00;98.30;;;;;;5045152;28;20127;-83
2021/08/25 11:04:08;;;;;;;5.28;3.03;;;20.00;98.30;;;;;;5045255;28;20059;-85
2021/08/25 11:06:42;;;;;;;5.18;2.97;;;20.20;96.80;;;;;;5043886;28;20049;-85
2021/08/25 11:09:25;;;;;;;5.43;2.63;;;20.00;96.60;;;;;;5049752;28;20405;-84
2021/08/25 11:11:56;;;;;;;5.38;3.42;;;20.10;97.10;;;;;;5030257;28;20512;-85
2021/08/25 11:14:30;;;;;;;5.60;3.20;;;20.30;97.60;;;;;;5049408;28;20049;-86
2021/08/25 11:16:59;;;;;;;;;;;20.20;97.40;;;;;;5049856;28;20059;-86
2021/08/25 11:19:33;;;;;;;5.68;2.97;;;20.20;97.20;;;;;;5050143;28;20381;-85
2021/08/25 11:22:02;;;;;;;5.10;3.17;;;20.40;97.20;;;;;;5048901;28;20041;-85
2021/08/25 11:24:39;;;;;;;5.43;3.30;;;20.40;96.60;;;;;;5049032;28;20049;-83
2021/08/25 11:27:32;;;;;;;5.40;3.10;;;20.40;96.80;;;;;;5050017;28;20088;-84
2021/08/25 11:30:11;;;;;;;8.20;3.33;;;20.30;96.40;;;;;;5036040;28;20050;-85
2021/08/25 11:32:45;;;;;;;6.07;2.80;;;20.50;96.30;;;;;;5049640;28;20133;-86
2021/08/25 11:35:22;;;;;;;6.28;2.65;;;20.40;96.20;;;;;;5049484;28;20049;-85
2021/08/25 11:37:50;;;;;;;6.15;3.28;;;20.50;96.30;;;;;;5049096;28;20049;-87
2021/08/25 11:40:17;;;;;;;6.82;3.20;;;20.60;96.20;;;;;;5030265;28;20095;-86
2021/08/25 11:42:44;;;;;;;5.53;3.22;;;20.70;95.70;;;;;;5029173;28;20132;-85
2021/08/25 11:45:18;;;;;;;8.05;3.25;;;20.60;95.40;;;;;;5042554;28;20516;-86
2021/08/25 11:47:50;;;;;;;6.88;3.33;;;20.50;95.30;;;;;;5047558;28;20055;-86
2021/08/25 11:50:20;;;;;;;5.18;2.65;;;20.70;95.40;;;;;;5035422;28;20137;-86
2021/08/25 11:52:48;;;;;;;4.78;2.53;;;20.60;95.60;;;;;;5039567;28;20144;-86
2021/08/25 11:55:16;;;;;;;5.18;2.80;;;20.70;95.70;;;;;;5030780;28;20045;-86
2021/08/25 11:57:46;;;;;;;5.15;2.65;;;20.80;95.60;;;;;;5028928;28;20069;-86
2021/08/25 12:00:16;;;;;;;5.78;3.03;;;20.90;95.40;;;;;;5030215;28;20148;-87
2021/08/25 12:02:59;;;;;;;5.88;2.90;;;21.00;95.10;;;;;;5037685;28;20115;-87
2021/08/25 12:05:31;;;;;;;4.93;2.70;;;21.20;94.90;;;;;;5049706;28;20056;-86
2021/08/25 12:08:09;;;;;;;5.47;2.90;;;21.20;94.50;;;;;;5044414;28;20055;-85
2021/08/25 12:10:39;;;;;;;4.32;2.47;;;21.40;94.40;;;;;;5041308;28;20577;-85
2021/08/25 12:13:07;;;;;;;7.25;3.22;;;21.60;94.10;;;;;;5049364;28;20160;-86
2021/08/25 12:15:47;;;;;;;5.93;3.15;;;21.70;93.40;;;;;;5048669;28;20504;-85
2021/08/25 12:18:14;;;;;;;5.53;2.95;;;21.70;92.80;;;;;;5048159;28;20532;-86
2021/08/25 12:20:45;;;;;;;5.70;2.85;;;21.80;92.20;;;;;;5048894;28;20052;-86
2021/08/25 12:23:14;;;;;;;5.25;2.78;;;22.10;92.30;;;;;;5042762;28;20479;-86
2021/08/25 12:25:43;;;;;;;4.75;2.78;;;22.00;92.30;;;;;;5047070;28;20041;-86
2021/08/25 12:28:12;;;;;;;4.78;2.40;;;22.00;92.20;;;;;;5048691;28;20049;-86
2021/08/25 12:30:42;;;;;;;5.53;2.75;;;22.10;91.50;;;;;;5045644;28;20437;-85
2021/08/25 12:33:12;;;;;;;5.38;3.15;;;22.30;91.50;;;;;;5028793;28;20045;-85
2021/08/25 12:35:41;;;;;;;4.80;2.80;;;22.40;91.40;;;;;;5040167;28;20057;-86
2021/08/25 12:38:09;;;;;;;4.47;2.50;;;22.50;91.30;;;;;;5028675;28;20068;-86
2021/08/25 12:40:36;;;;;;;5.15;3.05;;;22.40;91.10;;;;;;5028855;28;20509;-85
2021/08/25 12:43:03;;;;;;;5.85;2.95;;;22.60;91.70;;;;;;5035873;28;20045;-85
2021/08/25 12:45:30;;;;;;;5.07;2.72;;;22.60;91.00;;;;;;5050596;28;20041;-86
2021/08/25 12:47:58;;;;;;;5.05;2.83;;;22.80;89.00;;;;;;5051886;28;20405;-85
2021/08/25 12:50:26;;;;;;;5.68;2.65;;;22.60;89.20;;;;;;5052130;28;20128;-85
2021/08/25 12:52:54;;;;;;;5.68;3.00;;;22.80;89.40;;;;;;5052541;28;20080;-84